Time;durP1;ratioP1;P1;durP2;ratioP2;P2;SDS_P1;SDS_P2;PMS_P1;PMS_P2;Temp;Humidity;BMP_temperature;BMP_pressure;BME280_temperature;BME280_humidity;BME280_pressure;Samples;Min_cycle;Max_cycle;Signal;HPM_P1;HPM_P2
2023/10/08 00:01:42;;;;;;;;;;;;;;;16.16;34.13;94292.25;4951926;28;19929;-72
2023/10/08 00:04:07;;;;;;;;;;;;;;;16.16;34.37;94294.13;4964756;28;19929;-73
2023/10/08 00:06:33;;;;;;;;;;;;;;;16.10;33.87;94287.41;4957786;28;19942;-73
2023/10/08 00:09:08;;;;;;;;;;;;;;;16.00;33.76;94288.66;4950775;28;20556;-72
2023/10/08 00:11:36;;;;;;;;;;;;;;;16.00;33.94;94279.81;4956658;28;19922;-72
2023/10/08 00:14:04;;;;;;;;;;;;;;;15.93;33.94;94285.75;4959080;28;19930;-72
2023/10/08 00:16:29;;;;;;;;;;;;;;;15.96;32.60;94282.41;4956222;28;20393;-72
2023/10/08 00:18:59;;;;;;;;;;;;;;;15.90;33.83;94284.50;4954519;28;20600;-71
2023/10/08 00:21:27;;;;;;;;;;;;;;;15.90;33.98;94281.03;4958148;28;19922;-73
2023/10/08 00:23:55;;;;;;;;;;;;;;;15.89;34.22;94280.25;4960595;28;19915;-72
2023/10/08 00:26:27;;;;;;;;;;;;;;;15.91;34.17;94277.25;4956278;28;20262;-73
2023/10/08 00:28:53;;;;;;;;;;;;;;;15.79;34.13;94269.22;4956496;28;20013;-73
2023/10/08 00:31:18;;;;;;;;;;;;;;;15.78;33.49;94260.38;4958248;28;19922;-73
2023/10/08 00:33:44;;;;;;;;;;;;;;;15.75;32.54;94258.34;4956358;28;20357;-72
2023/10/08 00:36:19;;;;;;;;;;;;;;;15.72;32.02;94263.59;4955237;28;20450;-72
2023/10/08 00:38:53;;;;;;;;;;;;;;;15.80;32.01;94257.34;4954752;28;19921;-72
2023/10/08 00:41:22;;;;;;;;;;;;;;;15.82;31.83;94255.91;4952516;28;20275;-73
2023/10/08 00:43:48;;;;;;;;;;;;;;;15.78;33.12;94256.91;4955615;28;20318;-73
2023/10/08 00:46:30;;;;;;;;;;;;;;;15.65;33.80;94272.19;4959715;28;19918;-73
2023/10/08 00:48:56;;;;;;;;;;;;;;;15.82;34.18;94268.53;4954689;28;19921;-72
2023/10/08 00:51:40;;;;;;;;;;;;;;;15.89;34.03;94268.75;4956108;28;20111;-73
2023/10/08 00:54:07;;;;;;;;;;;;;;;15.89;34.53;94260.69;4947435;28;19922;-72
2023/10/08 00:59:16;;;;;;;;;;;;;;;15.99;34.20;94249.53;4957477;28;20292;-73
2023/10/08 01:01:51;;;;;;;;;;;;;;;15.93;34.38;94247.41;4958286;28;19966;-73
2023/10/08 01:04:26;;;;;;;;;;;;;;;15.89;34.88;94249.97;4956170;28;19925;-73
2023/10/08 01:06:55;;;;;;;;;;;;;;;15.75;34.83;94261.03;4957095;28;20297;-72
2023/10/08 01:09:27;;;;;;;;;;;;;;;15.70;35.49;94255.09;4955869;28;20491;-72
2023/10/08 01:12:23;;;;;;;;;;;;;;;15.68;35.58;94252.00;4957944;28;19925;-72
2023/10/08 01:14:53;;;;;;;;;;;;;;;15.65;35.71;94250.75;4956037;28;19926;-73
2023/10/08 01:17:19;;;;;;;;;;;;;;;15.68;35.43;94252.00;4956184;28;19930;-72
2023/10/08 01:19:54;;;;;;;;;;;;;;;15.57;35.97;94242.81;4956448;28;19922;-72
2023/10/08 01:22:25;;;;;;;;;;;;;;;15.48;36.16;94242.13;4956635;28;19926;-72
2023/10/08 01:24:51;;;;;;;;;;;;;;;15.46;36.11;94237.09;4958055;28;19920;-72
2023/10/08 01:27:23;;;;;;;;;;;;;;;15.45;36.13;94248.94;4955170;28;19910;-72
2023/10/08 01:29:50;;;;;;;;;;;;;;;15.44;36.06;94248.16;4956759;28;19926;-72
2023/10/08 01:32:16;;;;;;;;;;;;;;;15.45;36.23;94257.75;4955384;28;20392;-71
2023/10/08 01:34:45;;;;;;;;;;;;;;;15.39;36.62;94250.25;4957511;28;19922;-72
2023/10/08 01:37:12;;;;;;;;;;;;;;;15.30;36.07;94261.03;4955249;28;19961;-72
2023/10/08 01:39:42;;;;;;;;;;;;;;;15.31;36.24;94254.56;4957815;28;19929;-71
2023/10/08 01:42:15;;;;;;;;;;;;;;;15.20;36.61;94258.81;4953541;28;19914;-73
2023/10/08 01:44:40;;;;;;;;;;;;;;;15.21;36.05;94249.63;4957845;28;20567;-73
2023/10/08 01:47:06;;;;;;;;;;;;;;;15.18;36.04;94260.25;4949820;28;19968;-73
2023/10/08 01:49:33;;;;;;;;;;;;;;;15.16;36.55;94257.88;4957710;28;19944;-72
2023/10/08 01:51:58;;;;;;;;;;;;;;;15.12;36.50;94265.00;4954125;28;19917;-72
2023/10/08 01:54:26;;;;;;;;;;;;;;;15.14;36.74;94256.66;4959186;28;19976;-72
2023/10/08 01:56:51;;;;;;;;;;;;;;;15.09;36.50;94254.19;4960203;28;19968;-72
2023/10/08 01:59:16;;;;;;;;;;;;;;;15.07;36.58;94257.19;4960565;28;19929;-72
2023/10/08 02:01:43;;;;;;;;;;;;;;;15.01;36.51;94245.09;4956631;28;19960;-72
2023/10/08 02:04:09;;;;;;;;;;;;;;;14.97;36.80;94254.91;4960053;28;19918;-72
2023/10/08 02:06:35;;;;;;;;;;;;;;;14.98;37.09;94253.81;4956843;28;19926;-72
2023/10/08 02:09:07;;;;;;;;;;;;;;;14.87;37.10;94256.09;4960557;28;19926;-73
2023/10/08 02:11:40;;;;;;;;;;;;;;;14.81;37.00;94259.34;4959990;28;20340;-72
2023/10/08 02:14:06;;;;;;;;;;;;;;;14.78;37.29;94252.72;4959875;28;19925;-72
2023/10/08 02:16:33;;;;;;;;;;;;;;;14.71;37.21;94257.84;4960653;28;19922;-72
2023/10/08 02:18:59;;;;;;;;;;;;;;;14.74;37.14;94256.38;4963040;28;19953;-73
2023/10/08 02:21:25;;;;;;;;;;;;;;;14.68;37.27;94257.69;4959382;28;19980;-72
2023/10/08 02:23:52;;;;;;;;;;;;;;;14.62;37.19;94242.97;4956746;28;19914;-71
2023/10/08 02:26:19;;;;;;;;;;;;;;;14.59;37.28;94247.84;4957679;28;19922;-71
2023/10/08 02:28:45;;;;;;;;;;;;;;;14.55;37.36;94238.91;4960352;28;19922;-72
2023/10/08 02:31:10;;;;;;;;;;;;;;;14.58;37.52;94245.50;4954649;28;20082;-72
2023/10/08 02:33:35;;;;;;;;;;;;;;;14.53;37.41;94241.13;4959895;28;19910;-73
2023/10/08 02:36:04;;;;;;;;;;;;;;;14.50;37.86;94238.28;4958811;28;19918;-73
2023/10/08 02:38:29;;;;;;;;;;;;;;;14.45;37.81;94233.94;4958193;28;20374;-75
2023/10/08 02:40:56;;;;;;;;;;;;;;;14.40;37.92;94226.09;4957296;28;19933;-72
2023/10/08 02:43:23;;;;;;;;;;;;;;;14.35;37.76;94231.63;4957334;28;19992;-72
2023/10/08 02:45:49;;;;;;;;;;;;;;;14.32;38.32;94229.63;4956190;28;20032;-72
2023/10/08 02:48:15;;;;;;;;;;;;;;;14.26;38.43;94240.84;4950400;28;19925;-72
2023/10/08 02:50:41;;;;;;;;;;;;;;;14.26;38.28;94230.91;4960490;28;19922;-72
2023/10/08 02:53:12;;;;;;;;;;;;;;;14.17;38.49;94244.34;4946750;28;20396;-71
2023/10/08 02:55:43;;;;;;;;;;;;;;;14.18;38.14;94245.13;4956525;28;19917;-73
2023/10/08 02:58:14;;;;;;;;;;;;;;;14.16;38.21;94236.66;4955702;28;19925;-73
2023/10/08 03:00:40;;;;;;;;;;;;;;;14.05;38.53;94241.59;4959259;28;19922;-72
2023/10/08 03:03:15;;;;;;;;;;;;;;;14.01;38.59;94245.25;4956237;28;19948;-72
2023/10/08 03:05:40;;;;;;;;;;;;;;;13.98;38.74;94240.53;4959187;28;20356;-72
2023/10/08 03:08:10;;;;;;;;;;;;;;;13.99;38.61;94242.09;4958010;28;19949;-72
2023/10/08 03:10:37;;;;;;;;;;;;;;;13.99;38.64;94245.56;4958543;28;19918;-72
2023/10/08 03:13:05;;;;;;;;;;;;;;;13.96;39.16;94250.78;4957851;28;19918;-72
2023/10/08 03:15:38;;;;;;;;;;;;;;;13.86;38.98;94251.91;4957971;28;19910;-73
2023/10/08 03:18:10;;;;;;;;;;;;;;;13.83;39.07;94243.78;4955145;28;19930;-71
2023/10/08 03:20:38;;;;;;;;;;;;;;;13.79;39.25;94248.19;4962090;28;19926;-71
2023/10/08 03:23:12;;;;;;;;;;;;;;;13.82;39.00;94236.84;4955644;28;19927;-71
2023/10/08 03:25:41;;;;;;;;;;;;;;;13.77;39.32;94237.81;4957299;28;19922;-72
2023/10/08 03:28:12;;;;;;;;;;;;;;;13.75;38.70;94230.13;4957047;28;20424;-72
2023/10/08 03:30:49;;;;;;;;;;;;;;;13.79;38.80;94221.47;4965574;28;19910;-72
2023/10/08 03:33:22;;;;;;;;;;;;;;;13.77;39.00;94224.44;4959075;28;19918;-72
2023/10/08 03:35:49;;;;;;;;;;;;;;;13.67;39.46;94222.16;4956469;28;19922;-72
2023/10/08 03:38:44;;;;;;;;;;;;;;;13.62;39.47;94223.09;4957417;28;19922;-70
2023/10/08 03:41:16;;;;;;;;;;;;;;;13.62;39.56;94223.09;4959688;28;19918;-73
2023/10/08 03:43:58;;;;;;;;;;;;;;;13.62;39.19;94225.78;4956693;28;19922;-72
2023/10/08 03:46:24;;;;;;;;;;;;;;;13.64;39.33;94215.53;4958898;28;19933;-71
2023/10/08 03:48:51;;;;;;;;;;;;;;;13.58;39.44;94216.03;4955981;28;20294;-71
2023/10/08 03:51:20;;;;;;;;;;;;;;;13.58;39.55;94211.47;4954778;28;19917;-72
2023/10/08 03:53:58;;;;;;;;;;;;;;;13.59;39.53;94213.03;4957209;28;19938;-72
2023/10/08 03:56:24;;;;;;;;;;;;;;;13.66;39.35;94208.00;4955859;28;19930;-72
2023/10/08 03:58:53;;;;;;;;;;;;;;;13.66;39.22;94202.66;4952675;28;19960;-72
2023/10/08 04:01:19;;;;;;;;;;;;;;;13.58;39.73;94206.13;4953531;28;19956;-71
2023/10/08 04:06:15;;;;;;;;;;;;;;;13.60;39.79;94197.78;4955678;28;19972;-70
2023/10/08 04:08:54;;;;;;;;;;;;;;;13.51;39.55;94205.84;4955979;28;20012;-72
2023/10/08 04:12:10;;;;;;;;;;;;;;;13.49;39.74;94202.72;4959977;28;19926;-72
2023/10/08 04:14:08;;;;;;;;;;;;;;;13.54;39.26;94202.53;4960356;28;20350;-70
2023/10/08 04:16:37;;;;;;;;;;;;;;;13.44;39.75;94200.22;4956598;28;19932;-72
2023/10/08 04:19:03;;;;;;;;;;;;;;;13.46;39.59;94189.97;4954270;28;19921;-73
2023/10/08 04:21:28;;;;;;;;;;;;;;;13.45;39.89;94204.44;4954964;28;19922;-72
2023/10/08 04:23:57;;;;;;;;;;;;;;;13.40;39.87;94204.63;4955374;28;19918;-71
2023/10/08 04:26:26;;;;;;;;;;;;;;;13.45;39.76;94209.00;4957074;28;19918;-71
2023/10/08 04:28:57;;;;;;;;;;;;;;;13.43;39.63;94201.31;4948367;28;19968;-72
2023/10/08 04:31:28;;;;;;;;;;;;;;;13.43;39.40;94198.66;4958100;28;19971;-73
2023/10/08 04:33:54;;;;;;;;;;;;;;;13.44;39.64;94199.44;4962389;28;19995;-73
2023/10/08 04:36:21;;;;;;;;;;;;;;;13.45;39.96;94201.75;4957036;28;20316;-72
2023/10/08 04:38:54;;;;;;;;;;;;;;;13.45;40.09;94188.41;4956278;28;19922;-72
2023/10/08 04:41:27;;;;;;;;;;;;;;;13.45;39.98;94195.63;4958004;28;19976;-72
2023/10/08 04:43:55;;;;;;;;;;;;;;;13.50;40.03;94211.50;4968699;28;19918;-72
2023/10/08 04:46:53;;;;;;;;;;;;;;;13.54;40.09;94205.22;4958270;28;19918;-72
2023/10/08 04:49:27;;;;;;;;;;;;;;;13.53;39.92;94208.19;4957338;28;19957;-72
2023/10/08 04:51:57;;;;;;;;;;;;;;;13.49;40.04;94212.63;4957596;28;20415;-71
2023/10/08 04:54:31;;;;;;;;;;;;;;;13.52;40.33;94223.44;4956857;28;19914;-72
2023/10/08 04:56:57;;;;;;;;;;;;;;;13.53;40.07;94226.91;4959306;28;20021;-72
2023/10/08 04:59:23;;;;;;;;;;;;;;;13.54;39.79;94220.44;4957422;28;19946;-72
2023/10/08 05:02:02;;;;;;;;;;;;;;;13.62;39.54;94222.31;4956346;28;20407;-70
2023/10/08 05:04:32;;;;;;;;;;;;;;;13.60;39.41;94214.63;4954136;28;20203;-72
2023/10/08 05:07:03;;;;;;;;;;;;;;;13.62;39.68;94211.63;4960967;28;19909;-72
2023/10/08 05:09:45;;;;;;;;;;;;;;;13.62;40.01;94220.44;4954560;28;19920;-73
2023/10/08 05:12:30;;;;;;;;;;;;;;;13.63;40.37;94219.34;4954472;28;20097;-70
2023/10/08 05:15:09;;;;;;;;;;;;;;;13.70;40.00;94219.59;4957132;28;20760;-71
2023/10/08 05:17:46;;;;;;;;;;;;;;;13.75;40.22;94214.06;4956230;28;19933;-71
2023/10/08 05:20:40;;;;;;;;;;;;;;;13.80;40.26;94215.00;4956155;28;19922;-73
2023/10/08 05:23:20;;;;;;;;;;;;;;;13.85;40.64;94220.16;4955946;28;20291;-71
2023/10/08 05:28:30;;;;;;;;;;;;;;;13.92;40.34;94215.09;4963927;28;19928;-73
2023/10/08 05:31:47;;;;;;;;;;;;;;;13.94;40.39;94215.53;4954884;28;19925;-70
2023/10/08 05:36:35;;;;;;;;;;;;;;;14.02;40.11;94220.84;4956361;28;19925;-73
2023/10/08 05:39:01;;;;;;;;;;;;;;;14.07;40.65;94225.22;4956830;28;19922;-72
2023/10/08 05:41:51;;;;;;;;;;;;;;;14.13;39.96;94231.97;4955119;28;21224;-72
2023/10/08 05:54:35;;;;;;;;;;;;;;;14.36;39.71;94240.44;4957592;28;20502;-71
2023/10/08 05:57:24;;;;;;;;;;;;;;;14.47;39.23;94244.31;4956673;28;19925;-72
2023/10/08 06:00:17;;;;;;;;;;;;;;;14.43;39.72;94246.84;4953703;28;20389;-72
2023/10/08 06:05:22;;;;;;;;;;;;;;;14.57;39.25;94252.72;4959984;28;20015;-72
2023/10/08 06:18:28;;;;;;;;;;;;;;;15.05;38.98;94229.97;4955169;28;19976;-71
2023/10/08 06:20:54;;;;;;;;;;;;;;;15.13;39.01;94223.72;4955703;28;19922;-71
2023/10/08 06:23:20;;;;;;;;;;;;;;;15.20;39.81;94220.50;4957310;28;19967;-72
2023/10/08 06:26:05;;;;;;;;;;;;;;;15.34;39.94;94226.34;4952594;28;19929;-71
2023/10/08 06:28:30;;;;;;;;;;;;;;;15.42;39.26;94225.44;4959630;28;19926;-72
2023/10/08 06:30:56;;;;;;;;;;;;;;;15.53;39.19;94213.22;4954449;28;19918;-71
2023/10/08 06:33:30;;;;;;;;;;;;;;;15.71;38.80;94225.28;4951674;28;19918;-72
2023/10/08 06:36:02;;;;;;;;;;;;;;;15.78;39.25;94228.19;4955393;28;19918;-72
2023/10/08 06:38:31;;;;;;;;;;;;;;;15.91;38.98;94228.97;4952809;28;20009;-72
2023/10/08 06:41:00;;;;;;;;;;;;;;;15.90;38.78;94232.75;4956935;28;20002;-72
2023/10/08 06:43:26;;;;;;;;;;;;;;;15.92;38.21;94235.91;4955754;28;19913;-72
2023/10/08 06:45:58;;;;;;;;;;;;;;;16.06;37.59;94225.59;4958443;28;19910;-71
2023/10/08 06:48:23;;;;;;;;;;;;;;;16.13;37.96;94220.47;4965354;28;20470;-74
2023/10/08 06:50:49;;;;;;;;;;;;;;;16.21;38.20;94232.19;4957309;28;20282;-71
2023/10/08 06:53:15;;;;;;;;;;;;;;;16.05;39.24;94229.41;4957364;28;20389;-72
2023/10/08 06:55:41;;;;;;;;;;;;;;;16.20;39.39;94226.03;4957130;28;20346;-72
2023/10/08 06:58:09;;;;;;;;;;;;;;;16.33;38.62;94216.88;4957751;28;19922;-70
2023/10/08 07:00:38;;;;;;;;;;;;;;;16.42;38.79;94213.28;4959531;28;19972;-71
2023/10/08 07:03:04;;;;;;;;;;;;;;;16.53;38.46;94217.03;4956408;28;19949;-72
2023/10/08 07:05:36;;;;;;;;;;;;;;;16.60;38.10;94214.56;4957991;28;19957;-73
2023/10/08 07:08:06;;;;;;;;;;;;;;;16.74;37.36;94217.63;4956519;28;19922;-73
2023/10/08 07:10:31;;;;;;;;;;;;;;;16.84;37.60;94222.53;4962804;28;19921;-72
2023/10/08 07:12:59;;;;;;;;;;;;;;;16.89;36.48;94211.53;4959652;28;19913;-72
2023/10/08 07:15:26;;;;;;;;;;;;;;;16.98;36.43;94220.22;4961139;28;19918;-72
2023/10/08 07:17:51;;;;;;;;;;;;;;;16.88;32.52;94207.28;4955590;28;19945;-72
2023/10/08 07:20:20;;;;;;;;;;;;;;;16.94;30.36;94205.91;4957488;28;20362;-73
2023/10/08 07:22:48;;;;;;;;;;;;;;;17.00;29.17;94207.25;4955419;28;19922;-72
2023/10/08 07:25:15;;;;;;;;;;;;;;;17.05;29.60;94201.63;4956791;28;19918;-71
2023/10/08 07:27:40;;;;;;;;;;;;;;;17.03;28.92;94203.84;4955860;28;19918;-72
2023/10/08 07:30:10;;;;;;;;;;;;;;;16.98;28.72;94189.88;4949598;28;19929;-71
2023/10/08 07:32:37;;;;;;;;;;;;;;;17.07;28.95;94202.03;4957554;28;19918;-72
2023/10/08 07:35:24;;;;;;;;;;;;;;;17.03;28.77;94193.09;4954449;28;19922;-72
2023/10/08 07:37:50;;;;;;;;;;;;;;;17.14;28.78;94179.97;4958614;28;19934;-72
2023/10/08 07:40:16;;;;;;;;;;;;;;;17.28;29.18;94182.25;4955414;28;20015;-72
2023/10/08 07:42:41;;;;;;;;;;;;;;;17.39;28.18;94194.06;4956159;28;19997;-72
2023/10/08 07:45:06;;;;;;;;;;;;;;;17.37;28.25;94180.16;4958482;28;19919;-73
2023/10/08 07:47:32;;;;;;;;;;;;;;;17.43;29.16;94176.09;4957010;28;20040;-72
2023/10/08 07:49:58;;;;;;;;;;;;;;;17.52;28.66;94176.69;4956889;28;20016;-73
2023/10/08 07:52:24;;;;;;;;;;;;;;;17.55;27.92;94160.63;4953960;28;20037;-71
2023/10/08 07:54:49;;;;;;;;;;;;;;;17.65;28.56;94174.72;4956153;28;19922;-72
2023/10/08 07:57:25;;;;;;;;;;;;;;;17.76;28.06;94167.66;4921077;28;20405;-71
2023/10/08 07:59:54;;;;;;;;;;;;;;;17.76;28.08;94173.03;4932300;28;19922;-72
2023/10/08 08:02:23;;;;;;;;;;;;;;;17.73;28.70;94165.66;4956001;28;19979;-72
2023/10/08 08:04:50;;;;;;;;;;;;;;;17.83;28.20;94171.28;4954961;28;19917;-73
2023/10/08 08:07:16;;;;;;;;;;;;;;;17.91;28.38;94172.22;4955723;28;20435;-72
2023/10/08 08:09:50;;;;;;;;;;;;;;;17.85;28.34;94158.25;4957750;28;19910;-72
2023/10/08 08:12:21;;;;;;;;;;;;;;;17.85;28.97;94152.88;4956544;28;20048;-70
2023/10/08 08:14:47;;;;;;;;;;;;;;;17.95;28.71;94155.06;4957930;28;19918;-71
2023/10/08 08:17:13;;;;;;;;;;;;;;;18.15;28.97;94160.47;4953955;28;20440;-71
2023/10/08 08:19:49;;;;;;;;;;;;;;;18.22;28.22;94155.25;4948511;28;19921;-67
2023/10/08 08:22:20;;;;;;;;;;;;;;;18.19;28.22;94161.31;4955993;28;19918;-73
2023/10/08 08:24:47;;;;;;;;;;;;;;;18.18;28.93;94140.94;4962373;28;20336;-70
2023/10/08 08:27:23;;;;;;;;;;;;;;;18.26;28.78;94146.13;4958471;28;19921;-72
2023/10/08 08:29:49;;;;;;;;;;;;;;;18.40;28.29;94151.00;4952170;28;20012;-72
2023/10/08 08:32:21;;;;;;;;;;;;;;;18.36;28.31;94158.25;4953719;28;20243;-72
2023/10/08 08:34:50;;;;;;;;;;;;;;;18.37;28.31;94149.03;4952635;28;19914;-72
2023/10/08 08:37:15;;;;;;;;;;;;;;;18.43;28.92;94153.00;4952032;28;20637;-69
2023/10/08 08:39:41;;;;;;;;;;;;;;;18.50;28.24;94139.69;4952900;28;19914;-71
2023/10/08 08:42:07;;;;;;;;;;;;;;;18.55;28.41;94133.22;4954432;28;19936;-71
2023/10/08 08:44:39;;;;;;;;;;;;;;;18.67;28.13;94138.47;4953896;28;19921;-71
2023/10/08 08:47:06;;;;;;;;;;;;;;;18.73;28.39;94137.06;4955314;28;19922;-70
2023/10/08 08:49:39;;;;;;;;;;;;;;;18.72;27.80;94139.00;4955187;28;19921;-71
2023/10/08 08:52:04;;;;;;;;;;;;;;;18.75;27.92;94124.81;4953623;28;19954;-71
2023/10/08 08:54:30;;;;;;;;;;;;;;;18.77;28.05;94127.16;4952439;28;20049;-71
2023/10/08 08:56:56;;;;;;;;;;;;;;;18.81;28.43;94136.84;4953123;28;20684;-71
2023/10/08 08:59:21;;;;;;;;;;;;;;;18.96;28.08;94135.19;4952971;28;20814;-72
2023/10/08 09:01:50;;;;;;;;;;;;;;;19.01;28.02;94142.22;4955162;28;19941;-70
2023/10/08 09:04:17;;;;;;;;;;;;;;;19.00;28.14;94130.66;4951041;28;19972;-70
2023/10/08 09:06:44;;;;;;;;;;;;;;;19.04;28.47;94130.69;4957424;28;19914;-71
2023/10/08 09:09:22;;;;;;;;;;;;;;;19.01;28.23;94123.34;4954735;28;19965;-71
2023/10/08 09:11:55;;;;;;;;;;;;;;;19.08;28.37;94121.53;4958111;28;19922;-70
2023/10/08 09:14:21;;;;;;;;;;;;;;;19.17;28.72;94134.78;4955045;28;19922;-71
2023/10/08 09:16:47;;;;;;;;;;;;;;;19.24;28.12;94132.22;4953745;28;19918;-72
2023/10/08 09:19:18;;;;;;;;;;;;;;;19.28;28.48;94124.94;4955266;28;20467;-71
2023/10/08 09:21:44;;;;;;;;;;;;;;;19.19;28.11;94127.13;4956403;28;20385;-71
2023/10/08 09:24:11;;;;;;;;;;;;;;;19.27;28.10;94128.78;4956354;28;19922;-74
2023/10/08 09:26:37;;;;;;;;;;;;;;;19.26;28.14;94122.59;4957753;28;19922;-75
2023/10/08 09:29:04;;;;;;;;;;;;;;;19.31;28.02;94121.56;4956787;28;19918;-74
2023/10/08 09:31:35;;;;;;;;;;;;;;;19.39;27.79;94107.03;4957756;28;19953;-71
2023/10/08 09:34:03;;;;;;;;;;;;;;;19.45;28.76;94112.94;4955987;28;19918;-71
2023/10/08 09:36:31;;;;;;;;;;;;;;;19.44;28.12;94117.53;4958455;28;19910;-71
2023/10/08 09:39:00;;;;;;;;;;;;;;;19.54;28.02;94105.38;4953894;28;20043;-71
2023/10/08 09:41:28;;;;;;;;;;;;;;;19.59;28.23;94108.53;4955771;28;20351;-72
2023/10/08 09:43:56;;;;;;;;;;;;;;;19.67;27.69;94094.00;4954249;28;19968;-71
2023/10/08 09:46:26;;;;;;;;;;;;;;;19.65;28.07;94096.28;4955343;28;19918;-71
2023/10/08 09:48:54;;;;;;;;;;;;;;;19.71;27.93;94099.44;4953861;28;19960;-71
2023/10/08 09:51:20;;;;;;;;;;;;;;;19.68;27.92;94086.69;4958893;28;19914;-70
2023/10/08 09:53:53;;;;;;;;;;;;;;;19.70;27.16;94082.47;4954224;28;20386;-70
2023/10/08 09:56:19;;;;;;;;;;;;;;;19.73;27.44;94091.78;4955621;28;20388;-72
2023/10/08 09:58:46;;;;;;;;;;;;;;;19.80;27.60;94085.72;4972331;28;19928;-71
2023/10/08 10:01:11;;;;;;;;;;;;;;;19.82;27.89;94083.41;4952668;28;19922;-72
2023/10/08 10:03:37;;;;;;;;;;;;;;;19.86;27.78;94084.22;4958607;28;19935;-71
2023/10/08 10:06:02;;;;;;;;;;;;;;;19.89;27.41;94083.53;4950961;28;19928;-72
2023/10/08 10:08:35;;;;;;;;;;;;;;;19.93;27.14;94063.53;4957734;28;19922;-71
2023/10/08 10:11:00;;;;;;;;;;;;;;;20.05;27.31;94076.00;4956967;28;19932;-71
2023/10/08 10:13:33;;;;;;;;;;;;;;;20.12;27.70;94068.78;4958136;28;19922;-70
2023/10/08 10:15:58;;;;;;;;;;;;;;;20.13;26.92;94072.25;4954793;28;20696;-72
2023/10/08 10:18:25;;;;;;;;;;;;;;;20.18;27.11;94071.97;4952406;28;19926;-70
2023/10/08 10:20:51;;;;;;;;;;;;;;;20.27;27.45;94067.06;4949177;28;19992;-70
2023/10/08 10:23:36;;;;;;;;;;;;;;;20.34;27.52;94071.75;4950213;28;19933;-70
2023/10/08 10:26:02;;;;;;;;;;;;;;;20.31;27.18;94067.88;4947158;28;19953;-71
2023/10/08 10:28:29;;;;;;;;;;;;;;;20.39;27.47;94056.00;4953474;28;20161;-72
2023/10/08 10:30:55;;;;;;;;;;;;;;;20.46;27.38;94058.00;4953277;28;19941;-70
2023/10/08 10:33:21;;;;;;;;;;;;;;;20.45;28.19;94046.44;4950854;28;20020;-70
2023/10/08 10:35:51;;;;;;;;;;;;;;;20.47;27.35;94041.44;4952910;28;19918;-71
2023/10/08 10:38:20;;;;;;;;;;;;;;;20.56;27.60;94041.16;4947992;28;19922;-70
2023/10/08 10:40:56;;;;;;;;;;;;;;;20.58;28.09;94041.56;4955883;28;19922;-71
2023/10/08 10:43:28;;;;;;;;;;;;;;;20.69;28.07;94041.66;4958926;28;19922;-71
2023/10/08 10:45:55;;;;;;;;;;;;;;;20.65;27.79;94048.94;4957897;28;19914;-71
2023/10/08 10:51:07;;;;;;;;;;;;;;;20.58;28.20;94031.50;4953544;28;19929;-72
2023/10/08 10:53:44;;;;;;;;;;;;;;;20.49;28.20;94030.25;4950411;28;19929;-71
2023/10/08 10:56:11;;;;;;;;;;;;;;;20.48;28.34;94026.03;4950242;28;19922;-70
2023/10/08 10:58:39;;;;;;;;;;;;;;;20.33;27.95;94033.19;4950197;28;19918;-71
2023/10/08 11:01:08;;;;;;;;;;;;;;;20.27;28.51;94020.38;4947228;28;19933;-71
2023/10/08 11:03:34;;;;;;;;;;;;;;;20.22;28.97;94020.69;4949632;28;19918;-72
2023/10/08 11:06:05;;;;;;;;;;;;;;;20.19;28.70;94022.19;4948130;28;19926;-69
2023/10/08 11:08:34;;;;;;;;;;;;;;;20.14;28.99;94025.22;4931025;28;20218;-70
2023/10/08 11:11:05;;;;;;;;;;;;;;;20.20;29.16;94018.38;4942073;28;19925;-71
2023/10/08 11:13:37;;;;;;;;;;;;;;;20.28;28.93;94021.94;4949866;28;20329;-70
2023/10/08 11:16:03;;;;;;;;;;;;;;;20.34;29.03;94012.34;4948219;28;19994;-70
2023/10/08 11:18:28;;;;;;;;;;;;;;;20.32;29.09;94009.25;4948821;28;19922;-72
2023/10/08 11:21:13;;;;;;;;;;;;;;;20.23;29.33;94012.25;4948966;28;19933;-72
2023/10/08 11:24:08;;;;;;;;;;;;;;;20.38;29.38;94000.44;4944975;28;19922;-69
2023/10/08 11:26:39;;;;;;;;;;;;;;;20.45;29.83;94005.91;4947962;28;19921;-71
2023/10/08 11:29:05;;;;;;;;;;;;;;;20.46;29.56;93999.38;4952103;28;19926;-72
2023/10/08 11:31:34;;;;;;;;;;;;;;;20.50;29.35;93996.69;4949044;28;19926;-71
2023/10/08 11:34:00;;;;;;;;;;;;;;;20.48;29.69;93985.50;4949034;28;19922;-71
2023/10/08 11:36:33;;;;;;;;;;;;;;;20.48;29.60;93991.66;4949850;28;19918;-72
2023/10/08 11:39:08;;;;;;;;;;;;;;;20.53;30.12;93994.00;4946756;28;19957;-71
2023/10/08 11:41:52;;;;;;;;;;;;;;;20.57;30.48;93992.16;4947129;28;19930;-71
2023/10/08 11:44:23;;;;;;;;;;;;;;;20.54;30.25;94000.19;4948571;28;20151;-71
2023/10/08 11:46:51;;;;;;;;;;;;;;;20.51;30.42;93990.91;4954327;28;19929;-68
2023/10/08 11:49:25;;;;;;;;;;;;;;;20.64;30.10;93994.13;4947027;28;20062;-72
2023/10/08 11:51:52;;;;;;;;;;;;;;;20.64;30.10;93990.63;4949802;28;19922;-70
2023/10/08 11:54:17;;;;;;;;;;;;;;;20.63;30.52;93995.25;4952497;28;19992;-72
2023/10/08 11:56:42;;;;;;;;;;;;;;;20.59;30.14;93991.75;4952120;28;20405;-72
2023/10/08 11:59:12;;;;;;;;;;;;;;;20.58;30.61;94011.84;4950244;28;20197;-71
2023/10/08 12:01:41;;;;;;;;;;;;;;;20.39;30.54;94001.97;4949690;28;19988;-70
2023/10/08 12:04:12;;;;;;;;;;;;;;;20.36;30.50;93993.84;4950981;28;20047;-69
2023/10/08 12:06:46;;;;;;;;;;;;;;;20.30;30.65;93990.69;4960173;28;20404;-72
2023/10/08 12:09:12;;;;;;;;;;;;;;;20.33;30.39;93987.28;4945572;28;19929;-70
2023/10/08 12:11:39;;;;;;;;;;;;;;;20.29;30.59;93988.38;4948724;28;19949;-71
2023/10/08 12:14:05;;;;;;;;;;;;;;;20.20;30.29;93991.34;4947875;28;19930;-73
2023/10/08 12:16:35;;;;;;;;;;;;;;;20.25;30.69;93991.03;4947754;28;19920;-72
2023/10/08 12:19:00;;;;;;;;;;;;;;;20.27;30.07;93993.38;4948191;28;19943;-73
2023/10/08 12:21:29;;;;;;;;;;;;;;;20.30;30.51;93990.69;4948796;28;20294;-71
2023/10/08 12:23:54;;;;;;;;;;;;;;;20.45;30.58;93989.69;4946686;28;20195;-70
2023/10/08 12:26:20;;;;;;;;;;;;;;;20.50;30.28;93994.00;4947373;28;19926;-72
2023/10/08 12:28:48;;;;;;;;;;;;;;;20.50;30.25;94000.16;4927801;28;19933;-71
2023/10/08 12:31:15;;;;;;;;;;;;;;;20.45;30.00;93999.72;4919518;28;19922;-71
2023/10/08 12:33:41;;;;;;;;;;;;;;;20.41;30.21;93999.69;4943174;28;20105;-70
2023/10/08 12:36:10;;;;;;;;;;;;;;;20.32;30.23;93993.81;4946344;28;19922;-71
2023/10/08 12:38:36;;;;;;;;;;;;;;;20.42;30.33;93998.56;4940401;28;20183;-71
2023/10/08 12:41:08;;;;;;;;;;;;;;;20.50;30.74;94005.56;4947042;28;19929;-70
2023/10/08 12:43:38;;;;;;;;;;;;;;;20.47;30.79;94002.84;4953308;28;19918;-70
2023/10/08 12:46:03;;;;;;;;;;;;;;;20.49;31.08;93993.22;4940693;28;20381;-70
2023/10/08 12:48:29;;;;;;;;;;;;;;;20.43;30.89;93994.72;4923959;28;19925;-69
2023/10/08 12:50:58;;;;;;;;;;;;;;;20.36;30.93;93985.75;4938192;28;19922;-69
2023/10/08 12:53:26;;;;;;;;;;;;;;;20.40;30.98;93991.97;4937642;28;19922;-71
2023/10/08 12:56:00;;;;;;;;;;;;;;;20.36;31.08;93993.84;4938556;28;20390;-71
2023/10/08 12:58:41;;;;;;;;;;;;;;;20.35;30.82;94001.16;4930363;28;19918;-71
2023/10/08 13:01:09;;;;;;;;;;;;;;;20.34;30.78;93982.63;4954319;28;19925;-71
2023/10/08 13:03:40;;;;;;;;;;;;;;;20.29;31.11;93972.94;4926988;28;20005;-70
2023/10/08 13:06:10;;;;;;;;;;;;;;;20.26;31.31;93973.69;4923732;28;20227;-69
2023/10/08 13:08:36;;;;;;;;;;;;;;;20.13;31.64;93970.44;4940920;28;20944;-71
2023/10/08 13:11:01;;;;;;;;;;;;;;;20.21;31.64;93979.41;4962928;28;19932;-71
2023/10/08 13:13:27;;;;;;;;;;;;;;;20.35;31.22;93976.09;4945571;28;19941;-70
2023/10/08 13:15:56;;;;;;;;;;;;;;;20.39;31.58;93974.97;4948577;28;19912;-71
2023/10/08 13:18:21;;;;;;;;;;;;;;;20.44;30.89;93971.94;4949301;28;19933;-71
2023/10/08 13:20:48;;;;;;;;;;;;;;;20.51;31.09;93966.59;4949888;28;19922;-70
2023/10/08 13:23:13;;;;;;;;;;;;;;;20.64;31.02;93956.28;4950983;28;19922;-71
2023/10/08 13:25:39;;;;;;;;;;;;;;;20.72;30.83;93951.75;4945665;28;19922;-70
2023/10/08 13:28:07;;;;;;;;;;;;;;;20.62;30.67;93949.72;4947427;28;19940;-70
2023/10/08 13:30:32;;;;;;;;;;;;;;;20.53;30.90;93950.78;4948351;28;20432;-71
2023/10/08 13:32:59;;;;;;;;;;;;;;;20.58;30.58;93947.00;4951088;28;19925;-71
2023/10/08 13:35:25;;;;;;;;;;;;;;;20.63;30.84;93951.28;4942420;28;19922;-71
2023/10/08 13:37:52;;;;;;;;;;;;;;;20.71;30.95;93942.06;4942654;28;20056;-70